To NAV CANADA Home Page Login to a new session Search on AWWS site Feedback and Comments Disclaimer Vers la page française équivalente Tips FAQ What's new on the site To the Forecasts and Observations / NOTAM section To "File a Flight Plan" website Publications and other links Update of the User's profile FIC Telephone Numbers My Weather Data Folder Route Weather Data Regional Weather Data Local Weather Data To the Forecasts and Observations / NOTAM section
Request Generated 12/04/2016 at 22:18:22 UTC . Weather information available at that time is displayed.

METAR/TAF

MONCTON/GREATER MONCTON INTL/NB    

METAR CYQM 042200Z 27004KT 15SM BKN032 M03/M06 A3003 RMK SC7 SLP174=
METAR CYQM 042100Z 31002KT 15SM BKN032 M03/M06 A3002 RMK SC7 SLP172=
METAR CYQM 042000Z 32006KT 15SM BKN026 M03/M05 A3001 RMK SC7 SLP166=

TAF CYQM 041741Z 0418/0518 31015KT P6SM BKN030 TEMPO 0418/0502 BKN020
BECMG 0421/0423 32005KT
FM050200 31005KT P6SM FEW030
BECMG 0507/0509 27005KT
RMK NXT FCST BY 050000Z=
Your time UTC time
Weather data provided by Environment Canada and NAV CANADA